Terminal Aerodrome Forecast
Issued by NWS Wilmington, OH

Current Version | Previous Version | Text Only | Print | Product List | Glossary Off
Versions: 1 2 3 4 5 6 7 8 9 10 11 12 13 14 15 16 17 18 19 20 21 22 23 24 25 26 27

000
FTUS41 KILN 131502 AAA
TAFCVG
TAF AMD
KCVG 131502Z 1315/1418 35012KT P6SM SCT025 BKN150
     FM131800 35010KT P6SM BKN025
     FM140500 00000KT P6SM SCT025=

USA.gov is the U.S. government's official web portal to all federal, state and local government web resources and services.